Terminal Aerodrome Forecast
Issued by NWS Austin/San Antonio, TX

Home | Current Version | Previous Version | Text Only | Print | Product List | Glossary On
Versions: 1 2 3 4 5 6 7 8 9 10 11 12 13 14 15 16
000
FTUS44 KEWX 311100
TAFDRT
TAF
KDRT 311127Z 3112/0112 11012KT P6SM SCT250
     FM311500 03007KT P6SM SCT050 BKN250 PROB30 3122/0102 5SM TSRA
      BKN035CB=

USA.gov is the U.S. government's official web portal to all federal, state and local government web resources and services.